Time;durP1;ratioP1;P1;durP2;ratioP2;P2;SDS_P1;SDS_P2;PMS_P1;PMS_P2;Temp;Humidity;BMP_temperature;BMP_pressure;BME280_temperature;BME280_humidity;BME280_pressure;Samples;Min_cycle;Max_cycle;Signal;HPM_P1;HPM_P2
2023/10/02 00:01:45;;;;;;;9.15;3.80;;;;;;;;;;5054852;28;20036;-72
2023/10/02 00:04:16;;;;;;;7.55;4.10;;;;;;;;;;5054913;28;20032;-71
2023/10/02 00:06:42;;;;;;;8.07;3.72;;;;;;;;;;5055445;28;20034;-72
2023/10/02 00:09:07;;;;;;;7.97;4.10;;;;;;;;;;5054804;28;20024;-71
2023/10/02 00:11:36;;;;;;;7.60;3.77;;;;;;;;;;5054801;28;20479;-71
2023/10/02 00:14:20;;;;;;;7.75;3.45;;;;;;;;;;5054731;28;20791;-71
2023/10/02 00:17:03;;;;;;;10.25;3.80;;;;;;;;;;5054993;28;20099;-71
2023/10/02 00:19:39;;;;;;;7.05;3.53;;;;;;;;;;5055174;28;20361;-72
2023/10/02 00:22:34;;;;;;;7.85;3.67;;;;;;;;;;5054258;28;20395;-72
2023/10/02 00:24:58;;;;;;;8.27;3.63;;;;;;;;;;5054491;28;20028;-71
2023/10/02 00:27:23;;;;;;;8.15;3.65;;;;;;;;;;5053286;28;20529;-72
2023/10/02 00:29:52;;;;;;;7.00;3.35;;;;;;;;;;5054377;28;20033;-71
2023/10/02 00:32:19;;;;;;;7.28;3.70;;;;;;;;;;5054756;28;20402;-72
2023/10/02 00:34:51;;;;;;;7.50;3.67;;;;;;;;;;5054384;28;20032;-72
2023/10/02 00:37:16;;;;;;;6.30;3.53;;;;;;;;;;5054289;28;20430;-72
2023/10/02 00:39:47;;;;;;;6.68;3.13;;;;;;;;;;5053188;28;20111;-71
2023/10/02 00:42:16;;;;;;;6.25;3.30;;;;;;;;;;5054336;28;20476;-72
2023/10/02 00:44:56;;;;;;;7.55;3.35;;;;;;;;;;5052888;28;20111;-71
2023/10/02 00:47:44;;;;;;;6.55;3.30;;;;;;;;;;5054467;28;20066;-72
2023/10/02 00:50:17;;;;;;;8.65;3.35;;;;;;;;;;5052954;28;20031;-71
2023/10/02 00:52:44;;;;;;;5.95;3.00;;;;;;;;;;5053946;28;20021;-71
2023/10/02 00:55:20;;;;;;;6.18;3.25;;;;;;;;;;5053924;28;20031;-71
2023/10/02 00:57:49;;;;;;;8.50;3.40;;;;;;;;;;5054019;28;20070;-71
2023/10/02 01:00:19;;;;;;;7.65;3.38;;;;;;;;;;5053988;28;20399;-72
2023/10/02 01:02:45;;;;;;;5.80;3.50;;;;;;;;;;5053821;28;20471;-71
2023/10/02 01:05:16;;;;;;;7.28;3.33;;;;;;;;;;5052479;28;20040;-72
2023/10/02 01:07:43;;;;;;;6.75;3.40;;;;;;;;;;5054057;28;20031;-71
2023/10/02 01:10:17;;;;;;;5.88;3.00;;;;;;;;;;5053784;28;20021;-72
2023/10/02 01:12:46;;;;;;;6.55;3.30;;;;;;;;;;5051741;28;20021;-71
2023/10/02 01:15:12;;;;;;;8.35;3.20;;;;;;;;;;5052242;28;20111;-72
2023/10/02 01:17:41;;;;;;;6.93;3.83;;;;;;;;;;5053481;28;20052;-71
2023/10/02 01:20:20;;;;;;;5.25;3.00;;;;;;;;;;5051659;28;20564;-72
2023/10/02 01:22:51;;;;;;;7.18;3.47;;;;;;;;;;5052620;28;20044;-72
2023/10/02 01:25:18;;;;;;;6.00;3.00;;;;;;;;;;5053705;28;20392;-70
2023/10/02 01:27:47;;;;;;;9.35;3.28;;;;;;;;;;5053618;28;20020;-71
2023/10/02 01:30:16;;;;;;;6.68;3.38;;;;;;;;;;5053517;28;20453;-71
2023/10/02 01:35:36;;;;;;;6.93;3.45;;;;;;;;;;5053862;28;20534;-71
2023/10/02 01:38:06;;;;;;;5.50;3.00;;;;;;;;;;5053423;28;20040;-71
2023/10/02 01:40:35;;;;;;;6.90;3.40;;;;;;;;;;5053396;28;20099;-71
2023/10/02 01:43:12;;;;;;;6.50;3.00;;;;;;;;;;5053137;28;20032;-71
2023/10/02 01:45:43;;;;;;;5.57;3.03;;;;;;;;;;5053725;28;20020;-71
2023/10/02 01:48:12;;;;;;;6.22;3.22;;;;;;;;;;5053391;28;20029;-71
2023/10/02 01:50:37;;;;;;;6.63;2.75;;;;;;;;;;5052838;28;20055;-71
2023/10/02 01:53:05;;;;;;;6.53;3.10;;;;;;;;;;5053168;28;20384;-71
2023/10/02 01:55:35;;;;;;;6.78;3.28;;;;;;;;;;5053210;28;20056;-71
2023/10/02 01:58:16;;;;;;;8.60;3.60;;;;;;;;;;5052907;28;20103;-71
2023/10/02 02:00:42;;;;;;;5.88;3.20;;;;;;;;;;5052897;28;20517;-71
2023/10/02 02:03:17;;;;;;;5.72;3.22;;;;;;;;;;5053097;28;20029;-71
2023/10/02 02:05:46;;;;;;;6.82;3.40;;;;;;;;;;5051666;28;20029;-72
2023/10/02 02:08:21;;;;;;;6.82;3.17;;;;;;;;;;5053615;28;20379;-71
2023/10/02 02:10:50;;;;;;;8.52;3.22;;;;;;;;;;5052891;28;20036;-71
2023/10/02 02:13:16;;;;;;;7.10;3.38;;;;;;;;;;5053020;28;20025;-71
2023/10/02 02:16:00;;;;;;;5.72;3.00;;;;;;;;;;5052849;28;20025;-71
2023/10/02 02:18:26;;;;;;;5.97;3.20;;;;;;;;;;5052848;28;20025;-71
2023/10/02 02:21:02;;;;;;;6.18;3.22;;;;;;;;;;5052942;28;20071;-71
2023/10/02 02:23:30;;;;;;;6.85;3.30;;;;;;;;;;5051462;28;20437;-71
2023/10/02 02:25:55;;;;;;;7.13;3.20;;;;;;;;;;5051461;28;20131;-71
2023/10/02 02:28:22;;;;;;;7.28;3.38;;;;;;;;;;5052663;28;20021;-71
2023/10/02 02:30:47;;;;;;;6.20;3.35;;;;;;;;;;5052603;28;20036;-71
2023/10/02 02:33:13;;;;;;;6.68;3.35;;;;;;;;;;5052538;28;20021;-71
2023/10/02 02:35:39;;;;;;;6.22;3.08;;;;;;;;;;5052672;28;20028;-71
2023/10/02 02:38:13;;;;;;;7.63;3.63;;;;;;;;;;5053066;28;20025;-70
2023/10/02 02:40:40;;;;;;;7.25;3.30;;;;;;;;;;5052578;28;20072;-71
2023/10/02 02:43:18;;;;;;;8.07;3.22;;;;;;;;;;5052707;28;20506;-71
2023/10/02 02:45:45;;;;;;;8.10;3.50;;;;;;;;;;5054365;28;20376;-72
2023/10/02 02:48:10;;;;;;;7.70;3.42;;;;;;;;;;5056629;28;20391;-73
2023/10/02 02:50:41;;;;;;;8.85;3.33;;;;;;;;;;5056084;28;20048;-70
2023/10/02 02:53:23;;;;;;;6.75;3.60;;;;;;;;;;5056462;28;20021;-70
2023/10/02 02:56:18;;;;;;;8.10;3.22;;;;;;;;;;5056541;28;20017;-70
2023/10/02 02:58:50;;;;;;;15.75;3.40;;;;;;;;;;5056129;28;20017;-71
2023/10/02 03:01:24;;;;;;;6.57;3.03;;;;;;;;;;5055985;28;20399;-71
2023/10/02 03:03:51;;;;;;;6.57;2.97;;;;;;;;;;5056320;28;20021;-70
2023/10/02 03:06:23;;;;;;;9.95;3.88;;;;;;;;;;5055924;28;20064;-70
2023/10/02 03:08:51;;;;;;;6.47;3.40;;;;;;;;;;5055782;28;20021;-71
2023/10/02 03:11:19;;;;;;;6.65;3.22;;;;;;;;;;5054555;28;20028;-71
2023/10/02 03:13:45;;;;;;;8.35;3.70;;;;;;;;;;5056169;28;20067;-71
2023/10/02 03:16:17;;;;;;;7.82;3.42;;;;;;;;;;5055842;28;20037;-70
2023/10/02 03:18:43;;;;;;;7.35;3.00;;;;;;;;;;5054858;28;20095;-71
2023/10/02 03:21:15;;;;;;;11.02;3.72;;;;;;;;;;5055734;28;20495;-71
2023/10/02 03:23:42;;;;;;;10.55;3.65;;;;;;;;;;5056046;28;20031;-71
2023/10/02 03:26:27;;;;;;;10.63;3.67;;;;;;;;;;5054273;28;20100;-70
2023/10/02 03:29:01;;;;;;;8.30;3.35;;;;;;;;;;5055892;28;20021;-71
2023/10/02 03:31:36;;;;;;;5.80;3.30;;;;;;;;;;5054100;28;20472;-70
2023/10/02 03:34:24;;;;;;;7.90;3.80;;;;;;;;;;5054199;28;20043;-70
2023/10/02 03:36:50;;;;;;;10.88;3.35;;;;;;;;;;5055354;28;20033;-70
2023/10/02 03:39:51;;;;;;;8.38;3.80;;;;;;;;;;5055548;28;20373;-71
2023/10/02 03:42:12;;;;;;;;;;;;;;;;;;5055666;28;20025;-71
2023/10/02 03:44:38;;;;;;;8.65;3.33;;;;;;;;;;5054127;28;19909;-71
2023/10/02 03:47:03;;;;;;;7.65;3.45;;;;;;;;;;5055287;28;20100;-71
2023/10/02 03:49:28;;;;;;;7.38;3.58;;;;;;;;;;5055258;28;20035;-71
2023/10/02 03:51:55;;;;;;;8.88;3.50;;;;;;;;;;5055220;28;20036;-71
2023/10/02 03:54:21;;;;;;;7.10;3.70;;;;;;;;;;5054016;28;20388;-71
2023/10/02 03:56:51;;;;;;;10.38;3.42;;;;;;;;;;5054392;28;20024;-71
2023/10/02 03:59:20;;;;;;;8.02;3.78;;;;;;;;;;5055310;28;20029;-71
2023/10/02 04:01:47;;;;;;;7.20;3.08;;;;;;;;;;5053727;28;20021;-71
2023/10/02 04:06:44;;;;;;;7.18;3.33;;;;;;;;;;5054944;28;20441;-71
2023/10/02 04:09:23;;;;;;;7.05;3.38;;;;;;;;;;5055103;28;20036;-70
2023/10/02 04:11:55;;;;;;;10.00;3.60;;;;;;;;;;5055111;28;20060;-71
2023/10/02 04:14:32;;;;;;;6.55;3.50;;;;;;;;;;5055099;28;20064;-72
2023/10/02 04:19:49;;;;;;;9.70;3.65;;;;;;;;;;5054921;28;20415;-71
2023/10/02 04:22:28;;;;;;;6.22;3.80;;;;;;;;;;5053585;28;20021;-71
2023/10/02 04:24:58;;;;;;;7.15;3.45;;;;;;;;;;5054762;28;20078;-71
2023/10/02 04:27:27;;;;;;;6.97;3.53;;;;;;;;;;5054867;28;20107;-71
2023/10/02 04:32:59;;;;;;;8.73;3.58;;;;;;;;;;5053707;28;20061;-71
2023/10/02 04:38:09;;;;;;;10.25;4.32;;;;;;;;;;5054349;28;20094;-71
2023/10/02 04:40:44;;;;;;;6.85;3.60;;;;;;;;;;5052983;28;20480;-72
2023/10/02 04:43:28;;;;;;;7.75;3.80;;;;;;;;;;5054578;28;20028;-71
2023/10/02 04:46:01;;;;;;;9.00;3.42;;;;;;;;;;5054474;28;20100;-71
2023/10/02 04:48:38;;;;;;;10.00;4.00;;;;;;;;;;5052908;28;20021;-72
2023/10/02 04:51:11;;;;;;;9.02;3.72;;;;;;;;;;5054072;28;20676;-71
2023/10/02 04:53:39;;;;;;;7.88;3.72;;;;;;;;;;5052753;28;20404;-71
2023/10/02 04:56:13;;;;;;;10.25;3.58;;;;;;;;;;5054212;28;20060;-71
2023/10/02 04:58:47;;;;;;;;;;;;;;;;;;5054670;28;20395;-71
2023/10/02 05:02:17;;;;;;;6.45;3.30;;;;;;;;;;5054098;28;19909;-71
2023/10/02 05:04:06;;;;;;;9.25;3.83;;;;;;;;;;5050060;28;20044;-71
2023/10/02 05:11:50;;;;;;;6.38;3.33;;;;;;;;;;5054130;28;20025;-72
2023/10/02 05:14:26;;;;;;;8.05;3.72;;;;;;;;;;5053586;28;20384;-71
2023/10/02 05:20:07;;;;;;;6.95;3.72;;;;;;;;;;5053776;28;20035;-71
2023/10/02 05:22:36;;;;;;;6.65;3.50;;;;;;;;;;5053788;28;20017;-71
2023/10/02 05:25:04;;;;;;;8.60;3.70;;;;;;;;;;5053424;28;20025;-71
2023/10/02 05:27:39;;;;;;;6.60;3.20;;;;;;;;;;5052128;28;20031;-71
2023/10/02 05:30:17;;;;;;;6.57;3.90;;;;;;;;;;5053348;28;20017;-72
2023/10/02 05:32:43;;;;;;;8.50;4.00;;;;;;;;;;5053508;28;20028;-72
2023/10/02 05:37:43;;;;;;;7.47;3.58;;;;;;;;;;5053225;28;20025;-71
2023/10/02 05:48:15;;;;;;;9.43;3.80;;;;;;;;;;5053431;28;20025;-71
2023/10/02 05:51:09;;;;;;;10.20;4.00;;;;;;;;;;5051756;28;20025;-70
2023/10/02 05:53:34;;;;;;;7.95;3.80;;;;;;;;;;5053086;28;20024;-70
2023/10/02 05:58:36;;;;;;;10.18;3.88;;;;;;;;;;5053536;28;20391;-70
2023/10/02 06:01:18;;;;;;;5.82;3.22;;;;;;;;;;5052831;28;20032;-71
2023/10/02 06:03:45;;;;;;;6.15;3.38;;;;;;;;;;5053197;28;20025;-71
2023/10/02 06:06:15;;;;;;;7.72;3.47;;;;;;;;;;5053015;28;20039;-70
2023/10/02 06:09:03;;;;;;;9.48;3.80;;;;;;;;;;5051592;28;20033;-70
2023/10/02 06:11:33;;;;;;;8.95;3.15;;;;;;;;;;5051492;28;20025;-71
2023/10/02 06:14:10;;;;;;;9.45;3.67;;;;;;;;;;5053067;28;20531;-71
2023/10/02 06:16:38;;;;;;;8.00;3.40;;;;;;;;;;5053276;28;20029;-71
2023/10/02 06:19:06;;;;;;;7.70;3.72;;;;;;;;;;5051832;28;20049;-70
2023/10/02 06:21:45;;;;;;;7.85;3.70;;;;;;;;;;5056733;28;20467;-71
2023/10/02 06:24:10;;;;;;;6.97;3.40;;;;;;;;;;5055516;28;20027;-70
2023/10/02 06:26:49;;;;;;;9.10;3.40;;;;;;;;;;5056983;28;20028;-70
2023/10/02 06:29:22;;;;;;;6.10;3.28;;;;;;;;;;5056153;28;20048;-70
2023/10/02 06:31:51;;;;;;;11.05;3.72;;;;;;;;;;5057005;28;20032;-71
2023/10/02 06:34:19;;;;;;;13.98;3.80;;;;;;;;;;5057401;28;20353;-70
2023/10/02 06:36:48;;;;;;;8.38;3.55;;;;;;;;;;5057227;28;20345;-70
2023/10/02 06:39:21;;;;;;;8.88;3.72;;;;;;;;;;5056552;28;20077;-71
2023/10/02 06:41:47;;;;;;;8.57;3.50;;;;;;;;;;5057034;28;20017;-70
2023/10/02 06:44:15;;;;;;;6.05;3.45;;;;;;;;;;5055091;28;20315;-70
2023/10/02 06:46:52;;;;;;;5.25;3.08;;;;;;;;;;5056360;28;20439;-70
2023/10/02 06:49:20;;;;;;;9.68;3.45;;;;;;;;;;5056336;28;20028;-70
2023/10/02 06:51:49;;;;;;;9.75;3.63;;;;;;;;;;5056164;28;20099;-70
2023/10/02 06:54:16;;;;;;;11.70;3.85;;;;;;;;;;5056515;28;20032;-70
2023/10/02 06:56:42;;;;;;;13.90;3.30;;;;;;;;;;5056109;28;20392;-70
2023/10/02 06:59:09;;;;;;;9.70;3.33;;;;;;;;;;5056331;28;20017;-71
2023/10/02 07:01:35;;;;;;;10.07;3.70;;;;;;;;;;5055964;28;20027;-71
2023/10/02 07:04:09;;;;;;;12.25;3.65;;;;;;;;;;5056000;28;20037;-70
2023/10/02 07:06:38;;;;;;;9.43;3.92;;;;;;;;;;5056018;28;20033;-70
2023/10/02 07:09:13;;;;;;;7.80;3.28;;;;;;;;;;5056061;28;20029;-70
2023/10/02 07:11:42;;;;;;;8.50;3.58;;;;;;;;;;5056378;28;20450;-70
2023/10/02 07:14:09;;;;;;;5.93;3.22;;;;;;;;;;5056098;28;20024;-70
2023/10/02 07:16:35;;;;;;;8.32;3.33;;;;;;;;;;5055678;28;20066;-72
2023/10/02 07:19:00;;;;;;;13.20;3.97;;;;;;;;;;5054516;28;20017;-71
2023/10/02 07:21:30;;;;;;;9.35;3.13;;;;;;;;;;5056142;28;20417;-71
2023/10/02 07:23:56;;;;;;;8.15;3.40;;;;;;;;;;5055861;28;20025;-71
2023/10/02 07:26:45;;;;;;;10.10;3.88;;;;;;;;;;5054381;28;20029;-71
2023/10/02 07:29:07;;;;;;;7.80;3.42;;;;;;;;;;5055475;28;20035;-71
2023/10/02 07:31:32;;;;;;;7.80;3.70;;;;;;;;;;5054223;28;20025;-71
2023/10/02 07:33:58;;;;;;;8.27;3.97;;;;;;;;;;5055466;28;20501;-71
2023/10/02 07:36:26;;;;;;;12.60;3.53;;;;;;;;;;5055478;28;20102;-71
2023/10/02 07:38:53;;;;;;;10.05;3.60;;;;;;;;;;5055695;28;20045;-71
2023/10/02 07:41:25;;;;;;;8.68;3.33;;;;;;;;;;5056087;28;20396;-71
2023/10/02 07:43:55;;;;;;;9.43;3.55;;;;;;;;;;5054328;28;20540;-71
2023/10/02 07:46:23;;;;;;;9.50;3.60;;;;;;;;;;5055435;28;20021;-71
2023/10/02 07:49:00;;;;;;;9.82;3.65;;;;;;;;;;5055344;28;20488;-71
2023/10/02 07:51:30;;;;;;;9.60;3.83;;;;;;;;;;5055115;28;20127;-71
2023/10/02 07:53:59;;;;;;;8.63;3.25;;;;;;;;;;5055232;28;20131;-71
2023/10/02 07:56:25;;;;;;;9.88;3.60;;;;;;;;;;5055069;28;20074;-72
2023/10/02 07:58:55;;;;;;;8.93;3.83;;;;;;;;;;5054143;28;20376;-70
2023/10/02 08:01:25;;;;;;;10.15;3.60;;;;;;;;;;5054993;28;20100;-71
2023/10/02 08:03:51;;;;;;;7.80;3.63;;;;;;;;;;5054985;28;20424;-71
2023/10/02 08:06:33;;;;;;;8.50;3.40;;;;;;;;;;5054867;28;20108;-71
2023/10/02 08:11:51;;;;;;;9.52;3.88;;;;;;;;;;5055067;28;20079;-71
2023/10/02 08:14:38;;;;;;;9.02;3.63;;;;;;;;;;5054864;28;20103;-70
2023/10/02 08:17:21;;;;;;;12.50;3.92;;;;;;;;;;5054738;28;20091;-71
2023/10/02 08:19:58;;;;;;;8.57;3.60;;;;;;;;;;5053637;28;20491;-71
2023/10/02 08:22:24;;;;;;;11.73;3.83;;;;;;;;;;5053284;28;20108;-71
2023/10/02 08:24:52;;;;;;;7.97;3.65;;;;;;;;;;5054562;28;20056;-71
2023/10/02 08:27:18;;;;;;;9.13;3.50;;;;;;;;;;5054554;28;20029;-71
2023/10/02 08:29:44;;;;;;;6.35;3.20;;;;;;;;;;5054442;28;20108;-71
2023/10/02 08:32:12;;;;;;;9.15;3.58;;;;;;;;;;5053070;28;20543;-71
2023/10/02 08:34:37;;;;;;;8.82;3.80;;;;;;;;;;5054318;28;20087;-72
2023/10/02 08:37:07;;;;;;;11.53;3.63;;;;;;;;;;5054279;28;20033;-71
2023/10/02 08:39:33;;;;;;;9.27;3.72;;;;;;;;;;5054174;28;20288;-71
2023/10/02 08:41:59;;;;;;;12.25;3.58;;;;;;;;;;5053898;28;20021;-71
2023/10/02 08:44:25;;;;;;;7.50;3.55;;;;;;;;;;5053985;28;20021;-71
2023/10/02 08:46:50;;;;;;;7.22;3.42;;;;;;;;;;5054391;28;20029;-71
2023/10/02 08:49:18;;;;;;;6.95;3.38;;;;;;;;;;5054127;28;20020;-71
2023/10/02 08:51:48;;;;;;;10.45;3.65;;;;;;;;;;5054301;28;20040;-71
2023/10/02 08:54:15;;;;;;;7.25;3.60;;;;;;;;;;5053972;28;20086;-71
2023/10/02 08:56:43;;;;;;;8.73;4.03;;;;;;;;;;5052675;28;20436;-71
2023/10/02 08:59:16;;;;;;;10.43;3.70;;;;;;;;;;5052627;28;20510;-71
2023/10/02 09:01:41;;;;;;;10.15;3.45;;;;;;;;;;5054067;28;20391;-71
2023/10/02 09:07:44;;;;;;;7.70;3.35;;;;;;;;;;5051821;28;20036;-71
2023/10/02 09:10:18;;;;;;;11.30;3.70;;;;;;;;;;5053814;28;20028;-71
2023/10/02 09:12:50;;;;;;;8.70;3.60;;;;;;;;;;5054228;28;20025;-71
2023/10/02 09:15:29;;;;;;;8.48;3.78;;;;;;;;;;5052346;28;20047;-71
2023/10/02 09:17:57;;;;;;;11.45;3.60;;;;;;;;;;5052279;28;20043;-71
2023/10/02 09:20:38;;;;;;;12.18;3.88;;;;;;;;;;5053459;28;20475;-71
2023/10/02 09:23:08;;;;;;;9.63;3.67;;;;;;;;;;5053813;28;20541;-71
2023/10/02 09:25:36;;;;;;;10.60;3.88;;;;;;;;;;5053624;28;20033;-71
2023/10/02 09:28:13;;;;;;;9.23;3.58;;;;;;;;;;5053326;28;20029;-71
2023/10/02 09:30:41;;;;;;;8.70;4.03;;;;;;;;;;5053274;28;20100;-71
2023/10/02 09:33:08;;;;;;;7.47;3.50;;;;;;;;;;5051968;28;20107;-71
2023/10/02 09:35:44;;;;;;;9.32;3.88;;;;;;;;;;5053330;28;20029;-71
2023/10/02 09:38:16;;;;;;;12.05;3.88;;;;;;;;;;5053318;28;20045;-71
2023/10/02 09:43:28;;;;;;;10.20;3.83;;;;;;;;;;5053690;28;20029;-71
2023/10/02 09:46:00;;;;;;;6.63;3.17;;;;;;;;;;5053388;28;20025;-71
2023/10/02 09:48:46;;;;;;;14.13;3.70;;;;;;;;;;5053017;28;20437;-71
2023/10/02 09:51:20;;;;;;;9.50;3.33;;;;;;;;;;5052822;28;20400;-71
2023/10/02 09:54:05;;;;;;;8.90;3.47;;;;;;;;;;5052847;28;20032;-71
2023/10/02 09:56:52;;;;;;;8.70;3.85;;;;;;;;;;5053305;28;20103;-71
2023/10/02 09:59:22;;;;;;;9.43;3.60;;;;;;;;;;5053063;28;20083;-71
2023/10/02 10:02:08;;;;;;;7.78;3.60;;;;;;;;;;5051560;28;20549;-71
2023/10/02 10:10:27;;;;;;;8.98;3.80;;;;;;;;;;5053283;28;20115;-71
2023/10/02 10:13:09;;;;;;;10.32;4.07;;;;;;;;;;5052667;28;20059;-71
2023/10/02 10:15:37;;;;;;;9.18;3.53;;;;;;;;;;5052837;28;20032;-71
2023/10/02 10:18:12;;;;;;;9.20;3.67;;;;;;;;;;5052738;28;20028;-71
2023/10/02 10:20:38;;;;;;;7.38;3.58;;;;;;;;;;5052946;28;20121;-71
2023/10/02 10:23:31;;;;;;;7.50;3.40;;;;;;;;;;5053216;28;20400;-71
2023/10/02 10:26:07;;;;;;;8.88;3.67;;;;;;;;;;5052689;28;20021;-71
2023/10/02 10:28:33;;;;;;;12.25;3.92;;;;;;;;;;5052695;28;20048;-72
2023/10/02 10:31:01;;;;;;;12.48;3.85;;;;;;;;;;5052731;28;20028;-71
2023/10/02 10:33:27;;;;;;;10.60;3.60;;;;;;;;;;5052440;28;20028;-71
2023/10/02 10:35:52;;;;;;;8.75;3.40;;;;;;;;;;5052840;28;20100;-71
2023/10/02 10:41:09;;;;;;;7.78;3.00;;;;;;;;;;5052353;28;20052;-71
2023/10/02 10:43:56;;;;;;;11.23;3.60;;;;;;;;;;5052717;28;20036;-71
2023/10/02 10:46:26;;;;;;;7.57;3.40;;;;;;;;;;5052703;28;20395;-71
2023/10/02 10:49:08;;;;;;;8.18;3.53;;;;;;;;;;5052351;28;20545;-71
2023/10/02 10:51:38;;;;;;;8.10;3.65;;;;;;;;;;5052168;28;20044;-71
2023/10/02 10:54:13;;;;;;;7.20;3.63;;;;;;;;;;5052635;28;20031;-71
2023/10/02 10:56:49;;;;;;;7.70;3.25;;;;;;;;;;5051166;28;20025;-71
2023/10/02 10:59:24;;;;;;;9.82;3.88;;;;;;;;;;5052265;28;20080;-71
2023/10/02 11:04:40;;;;;;;11.65;4.07;;;;;;;;;;5052813;28;20063;-71
2023/10/02 11:07:25;;;;;;;6.80;3.45;;;;;;;;;;5054519;28;20388;-71
2023/10/02 11:10:14;;;;;;;9.30;3.70;;;;;;;;;;5055956;28;20100;-71
2023/10/02 11:12:54;;;;;;;11.48;3.60;;;;;;;;;;5055832;28;20025;-71
2023/10/02 11:15:45;;;;;;;8.52;3.72;;;;;;;;;;5055927;28;20415;-71
2023/10/02 11:18:19;;;;;;;8.10;3.53;;;;;;;;;;5055623;28;20484;-71
2023/10/02 11:20:54;;;;;;;8.05;3.83;;;;;;;;;;5055753;28;20026;-71
2023/10/02 11:23:38;;;;;;;6.60;3.35;;;;;;;;;;5054532;28;20016;-71
2023/10/02 11:26:11;;;;;;;9.95;3.72;;;;;;;;;;5056359;28;20059;-71
2023/10/02 11:28:38;;;;;;;10.45;3.42;;;;;;;;;;5055950;28;20021;-70
2023/10/02 11:31:29;;;;;;;8.45;3.47;;;;;;;;;;5056098;28;20029;-71
2023/10/02 11:34:08;;;;;;;7.97;3.28;;;;;;;;;;5056066;28;20036;-71
2023/10/02 11:36:36;;;;;;;9.38;3.47;;;;;;;;;;5055516;28;20032;-71
2023/10/02 11:39:19;;;;;;;9.20;3.40;;;;;;;;;;5055473;28;20028;-71
2023/10/02 11:41:46;;;;;;;7.50;3.35;;;;;;;;;;5055507;28;20067;-71
2023/10/02 11:44:13;;;;;;;9.27;3.45;;;;;;;;;;5055286;28;20059;-71
2023/10/02 11:46:40;;;;;;;6.82;3.08;;;;;;;;;;5054216;28;20056;-71
2023/10/02 11:49:05;;;;;;;7.63;3.22;;;;;;;;;;5055059;28;20024;-71
2023/10/02 11:51:31;;;;;;;7.80;3.10;;;;;;;;;;5053843;28;20033;-71
2023/10/02 11:54:01;;;;;;;5.22;3.00;;;;;;;;;;5055115;28;20025;-71
2023/10/02 11:56:26;;;;;;;11.23;3.20;;;;;;;;;;5055637;28;20013;-71
2023/10/02 11:58:52;;;;;;;5.13;2.50;;;;;;;;;;5055570;28;20031;-71
2023/10/02 12:01:21;;;;;;;7.25;2.95;;;;;;;;;;5054943;28;20028;-71
2023/10/02 12:03:48;;;;;;;6.85;2.50;;;;;;;;;;5055166;28;20036;-71
2023/10/02 12:06:14;;;;;;;4.32;2.20;;;;;;;;;;5054891;28;20036;-71
2023/10/02 12:08:40;;;;;;;5.28;2.40;;;;;;;;;;5054846;28;20021;-70
2023/10/02 12:11:08;;;;;;;4.90;2.00;;;;;;;;;;5053487;28;20110;-71
2023/10/02 12:13:33;;;;;;;5.63;2.25;;;;;;;;;;5054877;28;20023;-71
2023/10/02 12:15:58;;;;;;;12.45;2.33;;;;;;;;;;5054614;28;20020;-71
2023/10/02 12:18:24;;;;;;;6.50;2.23;;;;;;;;;;5054321;28;20020;-71
2023/10/02 12:20:49;;;;;;;4.28;2.22;;;;;;;;;;5054561;28;20333;-71
2023/10/02 12:23:16;;;;;;;6.80;2.58;;;;;;;;;;5053238;28;20039;-72
2023/10/02 12:25:46;;;;;;;4.40;2.03;;;;;;;;;;5053300;28;20020;-71
2023/10/02 12:28:12;;;;;;;4.72;2.20;;;;;;;;;;5054817;28;20032;-71
2023/10/02 12:30:37;;;;;;;5.55;2.55;;;;;;;;;;5053118;28;20051;-71
2023/10/02 12:33:03;;;;;;;12.15;2.30;;;;;;;;;;5054882;28;20025;-71
2023/10/02 12:35:32;;;;;;;4.95;2.22;;;;;;;;;;5054300;28;20070;-71
2023/10/02 12:37:58;;;;;;;6.55;2.40;;;;;;;;;;5052956;28;20491;-71
2023/10/02 12:40:31;;;;;;;5.38;2.40;;;;;;;;;;5053976;28;20079;-71
2023/10/02 12:42:57;;;;;;;5.82;2.50;;;;;;;;;;5053009;28;20021;-71
2023/10/02 12:45:22;;;;;;;4.35;2.30;;;;;;;;;;5054255;28;20025;-71
2023/10/02 12:47:48;;;;;;;5.07;2.07;;;;;;;;;;5054340;28;20491;-71
2023/10/02 12:50:13;;;;;;;4.93;2.30;;;;;;;;;;5053990;28;20281;-71
2023/10/02 12:52:38;;;;;;;5.88;2.15;;;;;;;;;;5054028;28;20498;-71
2023/10/02 12:55:05;;;;;;;6.13;2.50;;;;;;;;;;5054022;28;20086;-71
2023/10/02 12:57:30;;;;;;;4.38;2.10;;;;;;;;;;5054236;28;20442;-71
2023/10/02 12:59:55;;;;;;;6.40;2.30;;;;;;;;;;5053779;28;20021;-71
2023/10/02 13:02:21;;;;;;;6.00;2.47;;;;;;;;;;5054131;28;20087;-71
2023/10/02 13:04:46;;;;;;;7.40;2.20;;;;;;;;;;5054082;28;20100;-72
2023/10/02 13:07:11;;;;;;;4.47;2.23;;;;;;;;;;5052526;28;20055;-71
2023/10/02 13:09:37;;;;;;;4.30;2.10;;;;;;;;;;5053648;28;20254;-71
2023/10/02 13:12:02;;;;;;;5.88;2.05;;;;;;;;;;5053842;28;20036;-71
2023/10/02 13:14:28;;;;;;;5.78;2.03;;;;;;;;;;5052374;28;20070;-71
2023/10/02 13:16:53;;;;;;;5.30;2.20;;;;;;;;;;5053792;28;20051;-71
2023/10/02 13:19:18;;;;;;;5.38;2.15;;;;;;;;;;5052132;28;20260;-71
2023/10/02 13:21:51;;;;;;;5.65;2.30;;;;;;;;;;5053553;28;20387;-71
2023/10/02 13:24:17;;;;;;;4.75;2.05;;;;;;;;;;5052254;28;20133;-71
2023/10/02 13:26:43;;;;;;;4.25;2.20;;;;;;;;;;5053362;28;20069;-71
2023/10/02 13:29:09;;;;;;;4.90;2.08;;;;;;;;;;5052565;28;20025;-71
2023/10/02 13:31:35;;;;;;;4.93;2.03;;;;;;;;;;5053157;28;20032;-71
2023/10/02 13:34:03;;;;;;;6.13;2.47;;;;;;;;;;5052093;28;20388;-71
2023/10/02 13:36:28;;;;;;;4.57;2.08;;;;;;;;;;5053579;28;20110;-71
2023/10/02 13:38:58;;;;;;;7.50;2.25;;;;;;;;;;5051901;28;20495;-71
2023/10/02 13:41:25;;;;;;;5.75;2.42;;;;;;;;;;5053457;28;20025;-71
2023/10/02 13:43:55;;;;;;;7.50;2.10;;;;;;;;;;5053442;28;20037;-71
2023/10/02 13:46:22;;;;;;;7.18;2.38;;;;;;;;;;5051793;28;20020;-71
2023/10/02 13:48:48;;;;;;;5.22;2.30;;;;;;;;;;5051793;28;20051;-71
2023/10/02 13:51:16;;;;;;;5.95;2.33;;;;;;;;;;5052905;28;20032;-71
2023/10/02 13:53:42;;;;;;;8.73;2.55;;;;;;;;;;5053258;28;20392;-71
2023/10/02 13:56:11;;;;;;;6.53;2.20;;;;;;;;;;5053192;28;20060;-71
2023/10/02 13:58:41;;;;;;;6.88;2.22;;;;;;;;;;5051703;28;20035;-71
2023/10/02 14:01:08;;;;;;;4.82;2.58;;;;;;;;;;5052831;28;20392;-71
2023/10/02 14:03:34;;;;;;;8.15;2.50;;;;;;;;;;5053228;28;20483;-72
2023/10/02 14:06:03;;;;;;;7.07;2.60;;;;;;;;;;5052652;28;20426;-71
2023/10/02 14:08:28;;;;;;;10.32;2.60;;;;;;;;;;5052760;28;20024;-71
2023/10/02 14:10:54;;;;;;;6.97;3.13;;;;;;;;;;5052953;28;20028;-71
2023/10/02 14:13:19;;;;;;;7.25;2.88;;;;;;;;;;5052713;28;20285;-72
2023/10/02 14:15:46;;;;;;;7.67;2.73;;;;;;;;;;5052802;28;20028;-71
2023/10/02 14:18:13;;;;;;;5.55;2.80;;;;;;;;;;5052707;28;20745;-71
2023/10/02 14:20:38;;;;;;;4.65;2.45;;;;;;;;;;5051431;28;20510;-71
2023/10/02 14:23:05;;;;;;;6.13;2.60;;;;;;;;;;5052746;28;20048;-71
2023/10/02 14:25:32;;;;;;;6.38;2.38;;;;;;;;;;5051461;28;20388;-70
2023/10/02 14:27:58;;;;;;;6.28;2.53;;;;;;;;;;5053011;28;20502;-72
2023/10/02 14:30:24;;;;;;;6.00;2.55;;;;;;;;;;5052582;28;20025;-70
2023/10/02 14:32:49;;;;;;;6.82;2.70;;;;;;;;;;5051382;28;20025;-71
2023/10/02 14:35:17;;;;;;;7.15;3.03;;;;;;;;;;5052637;28;20033;-71
2023/10/02 14:37:43;;;;;;;5.80;2.80;;;;;;;;;;5052736;28;20033;-71
2023/10/02 14:40:10;;;;;;;8.05;2.67;;;;;;;;;;5053182;28;20035;-71
2023/10/02 14:42:37;;;;;;;5.93;2.50;;;;;;;;;;5056558;28;20172;-71
2023/10/02 14:45:03;;;;;;;4.00;2.35;;;;;;;;;;5055328;28;20051;-70
2023/10/02 14:47:31;;;;;;;7.35;2.78;;;;;;;;;;5056394;28;20017;-71
2023/10/02 14:49:57;;;;;;;5.68;3.10;;;;;;;;;;5056349;28;20406;-71
2023/10/02 14:52:22;;;;;;;4.32;2.25;;;;;;;;;;5054982;28;20025;-71
2023/10/02 14:54:48;;;;;;;4.85;2.20;;;;;;;;;;5056613;28;20021;-72
2023/10/02 14:57:14;;;;;;;5.95;2.83;;;;;;;;;;5056527;28;20082;-72
2023/10/02 14:59:40;;;;;;;4.93;2.28;;;;;;;;;;5054926;28;20083;-71
2023/10/02 15:02:05;;;;;;;5.50;2.33;;;;;;;;;;5054926;28;20013;-71
2023/10/02 15:04:31;;;;;;;8.13;2.67;;;;;;;;;;5054786;28;20026;-70
2023/10/02 15:06:57;;;;;;;5.63;2.92;;;;;;;;;;5056105;28;20107;-71
2023/10/02 15:09:23;;;;;;;5.63;2.53;;;;;;;;;;5056803;28;20048;-71
2023/10/02 15:11:50;;;;;;;6.53;2.75;;;;;;;;;;5056028;28;20025;-71
2023/10/02 15:14:15;;;;;;;6.90;2.85;;;;;;;;;;5056320;28;20020;-71
2023/10/02 15:16:40;;;;;;;6.20;2.72;;;;;;;;;;5056011;28;20025;-71
2023/10/02 15:19:06;;;;;;;5.77;2.57;;;;;;;;;;5055973;28;20033;-71
2023/10/02 15:21:32;;;;;;;7.20;2.60;;;;;;;;;;5054518;28;20700;-71
2023/10/02 15:23:58;;;;;;;7.45;2.90;;;;;;;;;;5054545;28;20047;-72
2023/10/02 15:26:23;;;;;;;7.65;2.38;;;;;;;;;;5055917;28;20116;-72
2023/10/02 15:28:49;;;;;;;5.63;2.47;;;;;;;;;;5055755;28;20373;-71
2023/10/02 15:31:14;;;;;;;7.30;2.75;;;;;;;;;;5055833;28;20093;-71
2023/10/02 15:33:41;;;;;;;7.53;3.08;;;;;;;;;;5055769;28;20029;-72
2023/10/02 15:36:08;;;;;;;7.32;2.63;;;;;;;;;;5054402;28;20462;-71
2023/10/02 15:38:33;;;;;;;6.13;2.63;;;;;;;;;;5055559;28;20016;-71
2023/10/02 15:41:02;;;;;;;5.47;2.58;;;;;;;;;;5054169;28;20025;-71
2023/10/02 15:43:27;;;;;;;7.28;3.17;;;;;;;;;;5055464;28;20017;-71
2023/10/02 15:45:54;;;;;;;8.33;2.70;;;;;;;;;;5055467;28;20025;-71
2023/10/02 15:48:19;;;;;;;5.80;2.50;;;;;;;;;;5055368;28;20268;-71
2023/10/02 15:50:44;;;;;;;6.97;2.88;;;;;;;;;;5055232;28;20483;-71
2023/10/02 15:53:10;;;;;;;6.60;2.83;;;;;;;;;;5054320;28;20112;-71
2023/10/02 15:55:37;;;;;;;8.60;3.15;;;;;;;;;;5055504;28;20383;-71